createdAt,value
2023-11-18T00:05:32.761Z,93281.56
2023-11-18T00:15:36.202Z,93285.00
2023-11-18T00:25:41.284Z,93300.31
2023-11-18T00:35:45.068Z,93315.41
2023-11-18T00:45:49.302Z,93317.88
2023-11-18T00:55:52.270Z,93326.84
2023-11-18T01:05:56.542Z,93311.97
2023-11-18T01:15:59.589Z,93305.34
2023-11-18T01:26:06.110Z,93313.03
2023-11-18T01:36:11.352Z,93311.63
2023-11-18T01:46:15.861Z,93316.78
2023-11-18T01:56:20.061Z,93333.72
2023-11-18T02:06:24.562Z,93338.63
2023-11-18T02:16:29.109Z,93352.78
2023-11-18T02:26:33.492Z,93345.28
2023-11-18T02:36:46.609Z,93337.16
2023-11-18T02:46:51.180Z,93326.94
2023-11-18T02:56:54.227Z,93342.41
2023-11-18T03:06:58.515Z,93349.25
2023-11-18T03:17:02.249Z,93347.16
2023-11-18T03:27:06.854Z,93351.72
2023-11-18T03:37:10.409Z,93351.72
2023-11-18T03:47:15.438Z,93366.50
2023-11-18T03:57:18.403Z,93376.78
2023-11-18T04:07:23.011Z,93387.88
2023-11-18T04:17:29.086Z,93386.09
2023-11-18T04:27:33.497Z,93390.50
2023-11-18T04:37:36.784Z,93409.69
2023-11-18T04:47:42.792Z,93400.16
2023-11-18T04:57:45.791Z,93402.81
2023-11-18T05:07:50.127Z,93421.09
2023-11-18T05:17:53.279Z,93422.66
2023-11-18T05:27:57.576Z,93413.81
2023-11-18T05:38:01.074Z,93419.94
2023-11-18T05:48:05.577Z,93434.53
2023-11-18T05:58:10.035Z,93434.94
2023-11-18T06:08:15.256Z,93439.38
2023-11-18T06:18:18.324Z,93445.75
2023-11-18T06:28:22.597Z,93446.66
2023-11-18T06:38:25.904Z,93441.53
2023-11-18T06:48:30.330Z,93455.84
2023-11-18T06:58:33.269Z,93472.34
2023-11-18T07:08:37.915Z,93483.84
2023-11-18T07:18:40.980Z,93481.03
2023-11-18T07:28:46.053Z,93482.88
2023-11-18T07:38:49.134Z,93482.84
2023-11-18T07:48:54.759Z,93492.81
2023-11-18T07:58:57.794Z,93515.25
2023-11-18T08:09:02.114Z,93517.09
2023-11-18T08:19:07.058Z,93528.66
2023-11-18T08:29:11.943Z,93520.47
2023-11-18T08:39:17.856Z,93539.13
2023-11-18T08:49:23.277Z,93545.75
2023-11-18T08:59:26.776Z,93543.59
2023-11-18T09:09:33.557Z,93546.56
2023-11-18T09:19:36.426Z,93538.72
2023-11-18T09:29:42.409Z,93531.66
2023-11-18T09:39:47.045Z,93536.38
2023-11-18T09:49:57.722Z,93548.84
2023-11-18T10:00:12.330Z,93537.94
2023-11-18T10:10:17.393Z,93546.13
2023-11-18T10:20:21.874Z,93554.91
2023-11-18T10:30:26.678Z,93540.97
2023-11-18T10:40:29.703Z,93533.88
2023-11-18T10:50:34.100Z,93536.28
2023-11-18T11:00:49.735Z,93533.44
2023-11-18T11:10:58.356Z,93526.19
2023-11-18T11:21:12.067Z,93525.34
2023-11-18T11:31:23.718Z,93511.91
2023-11-18T11:41:28.650Z,93515.50
2023-11-18T11:51:39.707Z,93504.97
2023-11-18T12:01:48.237Z,93514.97
2023-11-18T12:11:52.857Z,93517.63
2023-11-18T12:22:01.894Z,93501.13
2023-11-18T12:32:07.106Z,93513.50
2023-11-18T12:42:16.327Z,93511.44
2023-11-18T12:52:22.473Z,93485.88
2023-11-18T13:02:25.787Z,93472.91
2023-11-18T13:12:30.232Z,93458.97
2023-11-18T13:22:42.648Z,93442.00
2023-11-18T13:32:53.242Z,93430.84
2023-11-18T13:43:06.459Z,93460.72
2023-11-18T13:53:11.964Z,93448.31
2023-11-18T14:03:16.966Z,93445.84
2023-11-18T14:13:23.133Z,93456.38
2023-11-18T14:23:26.642Z,93470.06
2023-11-18T14:33:30.920Z,93457.56
2023-11-18T14:43:34.874Z,93442.50
2023-11-18T14:53:39.641Z,93432.25
2023-11-18T15:03:42.761Z,93418.25
2023-11-18T15:13:47.992Z,93430.97
2023-11-18T15:23:51.364Z,93425.38
2023-11-18T15:33:55.714Z,93406.88
2023-11-18T15:43:58.677Z,93388.81
2023-11-18T15:54:03.010Z,93392.75
2023-11-18T16:04:07.719Z,93407.09
2023-11-18T16:14:12.782Z,93382.81
2023-11-18T16:24:16.121Z,93377.44
2023-11-18T16:34:21.193Z,93371.34
2023-11-18T16:44:24.227Z,93353.19
2023-11-18T16:54:38.868Z,93356.56
2023-11-18T17:04:44.046Z,93367.84
2023-11-18T17:14:50.531Z,93361.06
2023-11-18T17:24:55.495Z,93379.88
2023-11-18T17:35:00.777Z,93373.06
2023-11-18T17:45:06.515Z,93370.00
2023-11-18T17:55:11.110Z,93366.19
2023-11-18T18:05:14.380Z,93365.09
2023-11-18T18:15:19.134Z,93357.22
2023-11-18T18:25:22.053Z,93331.03
2023-11-18T18:35:27.505Z,93324.31
2023-11-18T18:45:31.883Z,93325.22
2023-11-18T18:55:38.092Z,93310.16
2023-11-18T19:05:41.153Z,93292.84
2023-11-18T19:15:45.485Z,93287.06
2023-11-18T19:25:48.990Z,93273.06
2023-11-18T19:35:55.641Z,93279.72
2023-11-18T19:45:59.240Z,93267.16
2023-11-18T19:56:03.667Z,93254.78
2023-11-18T20:06:08.775Z,93222.06
2023-11-18T20:16:13.162Z,93207.38
2023-11-18T20:26:16.152Z,93189.31
2023-11-18T20:36:20.485Z,93207.03
2023-11-18T20:46:23.387Z,93196.53
2023-11-18T20:56:27.682Z,93183.66
2023-11-18T21:06:32.086Z,93172.81
2023-11-18T21:16:36.702Z,93158.47
2023-11-18T21:26:40.957Z,93141.91
2023-11-18T21:36:45.369Z,93117.41
2023-11-18T21:46:48.262Z,93096.84
2023-11-18T21:56:52.667Z,93076.75
2023-11-18T22:06:55.570Z,93059.19
2023-11-18T22:17:00.216Z,93043.13
2023-11-18T22:27:03.747Z,93050.13
2023-11-18T22:37:08.116Z,93036.34
2023-11-18T22:47:11.064Z,93014.28
2023-11-18T22:57:15.351Z,93000.19
2023-11-18T23:07:18.400Z,92992.44
2023-11-18T23:17:24.352Z,92979.34
2023-11-18T23:27:28.506Z,92961.06
2023-11-18T23:37:33.536Z,92948.28
2023-11-18T23:47:36.821Z,92951.63
2023-11-18T23:57:41.617Z,92913.66
